Buena Vista, CO

4:19 AM MDT on April 21, 2015 (GMT -0600)
Lake County | | Change Station
CLOSE
Current Station
Airport
Location: Leadville,
Elevation: 9928 ft
Nearby Weather Stations

Elev 9928 ft 39.23 °N, 106.32 °W | Updated 26 minutes ago

Clear
Clear
19 °F
Feels Like 14 °F
N
4
Wind Variable Wind from Variable

Today
High -- | Low -- °F
--% Chance of Precip.
Yesterday
High -- | Low -- °F
Precip. -- in
6:20 AM 7:47 PM
Waxing Crescent, 9% visible
Pressure 29.93 in
Visibility 10.0 miles
Clouds Overcast 6500 ft
Windchill 14 °F
Dew Point 15 °F
Humidity 85%
Rainfall 0.00 in
Snow Depth Not available.
UV 0 out of 12
Pollen 7.80 out of 12
Air Quality Not available.
Flu Activity Local Activity
METAR KLXV 210953Z AUTO VRB03KT 10SM OVC065 M07/M09 A3005 RMK AO2 SLP134 T10721094

More Conditions Fewer Conditions

Pressure 29.93 in
Visibility 10.0 miles
Clouds Overcast 6500 ft
Windchill 14 °F
Dew Point 15 °F
Humidity 85%
Rainfall 0.00 in
Snow Depth Not available.
UV 0 out of 12
Pollen 7.80 out of 12
Air Quality Not available.
Flu Activity Local Activity
METAR KLXV 210953Z AUTO VRB03KT 10SM OVC065 M07/M09 A3005 RMK AO2 SLP134 T10721094

More Conditions Fewer Conditions

10-Day Weather Forecast

Almanac

Astronomy

Apr. 21, 2015 Rise Set
Actual Time
Civil Twilight
Nautical Twilight
Astronomical Twilight
Moon
Length of Visible Light
Length of Day
Tomorrow will be .
, % of the Moon is Illuminated

Today's Extremes

State Highs State Lows

Community

WunderPhotos

Upload Photos

1,815,337 photos uploaded!

WunderBlogs® & News

Nearby

Air Quality

  Air Quality AQ Index Pollutant
Not available.

Snow Depth

Station Depth Elevation

Earthquake Activity

City Distance Mag. Time & Date
Minimum magnitude displayed is 2.5.

Coastal Water Temperatures

Place Temperature

Stations

Nearby Weather Stations

Station Location Temp. Windchill Dew Point Humidity Wind Precip. Elev Updated Type